createdAt,value
2019-02-09T00:00:02.743Z,7.60
2019-02-09T00:01:02.734Z,7.58
2019-02-09T00:02:02.729Z,7.52
2019-02-09T00:03:02.733Z,7.54
2019-02-09T00:04:02.702Z,7.57
2019-02-09T00:05:02.683Z,7.55
2019-02-09T00:06:02.670Z,7.52
2019-02-09T00:07:02.660Z,7.54
2019-02-09T00:08:02.696Z,7.50
2019-02-09T00:09:02.669Z,7.49
2019-02-09T00:10:02.629Z,7.46
2019-02-09T00:11:02.621Z,7.49
2019-02-09T00:12:02.608Z,7.46
2019-02-09T00:13:02.624Z,7.44
2019-02-09T00:14:02.588Z,7.50
2019-02-09T00:15:02.579Z,7.44
2019-02-09T00:16:02.586Z,7.54
2019-02-09T00:17:02.558Z,7.49
2019-02-09T00:18:02.593Z,7.52
2019-02-09T00:19:03.731Z,7.50
2019-02-09T00:20:02.524Z,7.54
2019-02-09T00:21:02.509Z,7.47
2019-02-09T00:22:02.501Z,7.42
2019-02-09T00:23:02.494Z,7.42
2019-02-09T00:24:02.514Z,7.47
2019-02-09T00:25:02.464Z,7.42
2019-02-09T00:26:02.458Z,7.39
2019-02-09T00:27:02.441Z,7.44
2019-02-09T00:28:02.430Z,7.52
2019-02-09T00:29:02.443Z,7.42
2019-02-09T00:30:02.407Z,7.44
2019-02-09T00:31:02.398Z,7.49
2019-02-09T00:32:02.388Z,7.49
2019-02-09T00:33:02.375Z,7.44
2019-02-09T00:34:02.387Z,7.40
2019-02-09T00:35:02.383Z,7.39
2019-02-09T00:36:02.358Z,7.43
2019-02-09T00:37:02.331Z,7.46
2019-02-09T00:38:02.321Z,7.44
2019-02-09T00:39:02.347Z,7.40
2019-02-09T00:40:02.296Z,7.42
2019-02-09T00:41:02.287Z,7.43
2019-02-09T00:42:02.296Z,7.33
2019-02-09T00:43:02.273Z,7.42
2019-02-09T00:44:02.253Z,7.31
2019-02-09T00:45:02.274Z,7.37
2019-02-09T00:46:02.232Z,7.26
2019-02-09T00:47:02.226Z,7.36
2019-02-09T00:48:02.205Z,7.29
2019-02-09T00:49:02.197Z,7.25
2019-02-09T00:50:02.220Z,7.22
2019-02-09T00:51:02.187Z,7.33
2019-02-09T00:52:02.163Z,7.25
2019-02-09T00:53:02.163Z,7.28
2019-02-09T00:54:02.146Z,7.28
2019-02-09T00:55:02.150Z,7.25
2019-02-09T00:56:02.126Z,7.22
2019-02-09T00:57:02.104Z,7.21
2019-02-09T00:58:02.107Z,7.22
2019-02-09T00:59:02.087Z,7.22
2019-02-09T01:00:02.108Z,7.31
2019-02-09T01:01:02.061Z,7.26
2019-02-09T01:02:02.052Z,7.34
2019-02-09T01:03:02.040Z,7.15
2019-02-09T01:04:02.037Z,7.19
2019-02-09T01:05:02.067Z,7.33
2019-02-09T01:06:02.018Z,7.28
2019-02-09T01:07:01.998Z,7.25
2019-02-09T01:08:01.989Z,7.24
2019-02-09T01:09:01.978Z,7.28
2019-02-09T01:10:01.967Z,7.29
2019-02-09T01:11:02.125Z,7.24
2019-02-09T01:12:01.940Z,7.24
2019-02-09T01:13:01.945Z,7.21
2019-02-09T01:14:01.921Z,7.28
2019-02-09T01:15:01.907Z,7.42
2019-02-09T01:16:01.922Z,7.33
2019-02-09T01:17:01.894Z,7.26
2019-02-09T01:18:01.882Z,7.28
2019-02-09T01:19:01.864Z,7.34
2019-02-09T01:20:01.851Z,7.24
2019-02-09T01:21:01.863Z,7.21
2019-02-09T01:22:01.845Z,7.26
2019-02-09T01:23:01.855Z,7.28
2019-02-09T01:24:01.819Z,7.28
2019-02-09T01:25:01.795Z,7.29
2019-02-09T01:26:01.815Z,7.28
2019-02-09T01:27:01.774Z,7.25
2019-02-09T01:28:01.783Z,7.22
2019-02-09T01:29:01.751Z,7.25
2019-02-09T01:30:02.815Z,7.33
2019-02-09T01:31:01.759Z,7.26
2019-02-09T01:32:01.719Z,7.22
2019-02-09T01:33:01.708Z,7.19
2019-02-09T01:34:01.701Z,7.25
2019-02-09T01:35:01.713Z,7.21
2019-02-09T01:36:01.713Z,7.19
2019-02-09T01:37:01.665Z,7.22
2019-02-09T01:38:01.660Z,7.22
2019-02-09T01:39:01.646Z,7.15
2019-02-09T01:40:01.650Z,7.19
2019-02-09T01:41:01.626Z,7.18
2019-02-09T01:42:01.695Z,7.19
2019-02-09T01:43:01.603Z,7.22
2019-02-09T01:44:01.593Z,7.19
2019-02-09T01:45:01.578Z,7.21
2019-02-09T01:46:01.603Z,7.24
2019-02-09T01:47:01.563Z,7.19
2019-02-09T01:48:01.543Z,7.22
2019-02-09T01:49:01.540Z,7.22
2019-02-09T01:50:01.528Z,7.28
2019-02-09T01:51:01.566Z,7.29
2019-02-09T01:52:01.500Z,7.28
2019-02-09T01:53:01.494Z,7.29
2019-02-09T01:54:01.479Z,7.31
2019-02-09T01:55:01.507Z,7.25
2019-02-09T01:56:01.460Z,7.24
2019-02-09T01:57:01.467Z,7.24
2019-02-09T01:58:01.441Z,7.22
2019-02-09T01:59:01.426Z,7.26
2019-02-09T02:00:01.411Z,7.22
2019-02-09T02:01:01.402Z,7.22
2019-02-09T02:02:01.453Z,7.28
2019-02-09T02:03:01.387Z,7.29
2019-02-09T02:04:01.373Z,7.33
2019-02-09T02:05:01.389Z,7.29
2019-02-09T02:06:01.344Z,7.19
2019-02-09T02:07:01.334Z,7.19
2019-02-09T02:08:01.359Z,7.15
2019-02-09T02:09:01.319Z,7.26
2019-02-09T02:10:01.310Z,7.24
2019-02-09T02:11:01.300Z,7.29
2019-02-09T02:12:01.326Z,7.33
2019-02-09T02:13:01.310Z,7.37
2019-02-09T02:14:01.257Z,7.31
2019-02-09T02:15:01.285Z,7.34
2019-02-09T02:16:01.238Z,7.36
2019-02-09T02:17:01.224Z,7.36
2019-02-09T02:18:01.344Z,7.33
2019-02-09T02:19:01.204Z,7.22
2019-02-09T02:20:01.203Z,7.33
2019-02-09T02:21:01.183Z,7.31
2019-02-09T02:22:01.234Z,7.26
2019-02-09T02:23:01.182Z,7.28
2019-02-09T02:24:01.148Z,7.26
2019-02-09T02:25:01.148Z,7.25
2019-02-09T02:26:01.128Z,7.26
2019-02-09T02:27:01.114Z,7.24
2019-02-09T02:28:01.137Z,7.21
2019-02-09T02:29:01.096Z,7.26
2019-02-09T02:30:01.080Z,7.21
2019-02-09T02:31:01.069Z,7.25
2019-02-09T02:32:01.056Z,7.25
2019-02-09T02:33:01.092Z,7.22
2019-02-09T02:34:01.033Z,7.18
2019-02-09T02:35:01.050Z,7.18
2019-02-09T02:36:01.013Z,7.19
2019-02-09T02:37:01.030Z,7.15
2019-02-09T02:38:01.035Z,7.07
2019-02-09T02:39:00.980Z,7.06
2019-02-09T02:40:00.976Z,7.11
2019-02-09T02:41:00.971Z,7.08
2019-02-09T02:42:00.945Z,7.11
2019-02-09T02:43:00.970Z,7.08
2019-02-09T02:44:00.934Z,7.13
2019-02-09T02:45:00.913Z,7.07
2019-02-09T02:46:00.907Z,7.10
2019-02-09T02:47:00.899Z,7.03
2019-02-09T02:48:00.917Z,7.15
2019-02-09T02:49:00.876Z,7.07
2019-02-09T02:50:00.857Z,7.13
2019-02-09T02:51:00.852Z,7.13
2019-02-09T02:52:00.836Z,7.07
2019-02-09T02:53:00.852Z,7.10
2019-02-09T02:54:00.842Z,7.03
2019-02-09T02:55:00.813Z,7.16
2019-02-09T02:56:00.795Z,7.07
2019-02-09T02:57:00.780Z,7.08
2019-02-09T02:58:00.773Z,7.04
2019-02-09T02:59:00.784Z,7.04
2019-02-09T03:00:00.753Z,7.19
2019-02-09T03:01:00.737Z,7.10
2019-02-09T03:02:00.725Z,7.16
2019-02-09T03:03:00.714Z,7.15
2019-02-09T03:04:00.727Z,7.15
2019-02-09T03:05:00.694Z,7.25
2019-02-09T03:06:00.682Z,7.19
2019-02-09T03:07:00.688Z,7.22
2019-02-09T03:08:00.659Z,7.21
2019-02-09T03:09:00.672Z,7.21
2019-02-09T03:10:00.639Z,7.33
2019-02-09T03:11:00.638Z,7.36
2019-02-09T03:12:00.629Z,7.42
2019-02-09T03:13:00.607Z,7.44
2019-02-09T03:14:00.627Z,7.40
2019-02-09T03:15:00.624Z,7.31
2019-02-09T03:16:00.573Z,7.33
2019-02-09T03:17:00.561Z,7.37
2019-02-09T03:18:00.549Z,7.43
2019-02-09T03:19:00.590Z,7.43
2019-02-09T03:20:00.541Z,7.43
2019-02-09T03:21:00.529Z,7.46
2019-02-09T03:22:00.506Z,7.50
2019-02-09T03:23:00.496Z,7.50
2019-02-09T03:24:00.485Z,7.52
2019-02-09T03:25:00.535Z,7.44
2019-02-09T03:26:00.463Z,7.50
2019-02-09T03:27:00.451Z,7.42
2019-02-09T03:28:00.443Z,7.46
2019-02-09T03:29:00.432Z,7.40
2019-02-09T03:30:00.419Z,7.40
2019-02-09T03:31:00.443Z,7.47
2019-02-09T03:32:00.396Z,7.54
2019-02-09T03:33:00.406Z,7.47
2019-02-09T03:34:00.385Z,7.43
2019-02-09T03:35:00.368Z,7.39
2019-02-09T03:36:00.394Z,7.40
2019-02-09T03:37:00.353Z,7.39
2019-02-09T03:38:00.330Z,7.46
2019-02-09T03:39:00.322Z,7.49
2019-02-09T03:40:00.339Z,7.50
2019-02-09T03:41:00.319Z,7.43
2019-02-09T03:42:00.286Z,7.49
2019-02-09T03:43:00.273Z,7.47
2019-02-09T03:44:00.270Z,7.40
2019-02-09T03:45:00.282Z,7.46
2019-02-09T03:46:00.271Z,7.55
2019-02-09T03:47:00.234Z,7.50
2019-02-09T03:48:00.221Z,7.50
2019-02-09T03:49:00.211Z,7.52
2019-02-09T03:50:00.242Z,7.58
2019-02-09T03:51:00.210Z,7.52
2019-02-09T03:52:00.179Z,7.55
2019-02-09T03:53:00.165Z,7.50
2019-02-09T03:54:00.164Z,7.50
2019-02-09T03:55:00.239Z,7.50
2019-02-09T03:56:00.166Z,7.61
2019-02-09T03:57:00.132Z,7.57
2019-02-09T03:58:00.161Z,7.54
2019-02-09T03:59:00.100Z,7.58
2019-02-09T04:00:00.192Z,7.55
2019-02-09T04:01:00.115Z,7.57
2019-02-09T04:02:00.066Z,7.60
2019-02-09T04:03:00.066Z,7.60
2019-02-09T04:04:00.058Z,7.62
2019-02-09T04:05:00.033Z,7.66
2019-02-09T04:06:00.022Z,7.54
2019-02-09T04:07:00.034Z,7.54
2019-02-09T04:08:00.000Z,7.52
2019-02-09T04:08:59.991Z,7.69
2019-02-09T04:09:59.980Z,7.57
2019-02-09T04:10:59.971Z,7.47
2019-02-09T04:11:59.980Z,7.44
2019-02-09T04:12:59.946Z,7.55
2019-02-09T04:13:59.932Z,7.54
2019-02-09T04:14:59.923Z,7.49
2019-02-09T04:15:59.909Z,7.43
2019-02-09T04:16:59.927Z,7.49
2019-02-09T04:17:59.896Z,7.54
2019-02-09T04:18:59.877Z,7.57
2019-02-09T04:19:59.868Z,7.54
2019-02-09T04:20:59.855Z,7.58
2019-02-09T04:21:59.869Z,7.52
2019-02-09T04:22:59.834Z,7.54
2019-02-09T04:23:59.827Z,7.57
2019-02-09T04:24:59.816Z,7.52
2019-02-09T04:25:59.810Z,7.57
2019-02-09T04:26:59.829Z,7.57
2019-02-09T04:27:59.821Z,7.50
2019-02-09T04:28:59.769Z,7.58
2019-02-09T04:29:59.761Z,7.61
2019-02-09T04:31:05.961Z,7.64
2019-02-09T04:32:00.733Z,7.62
2019-02-09T04:32:59.766Z,7.66
2019-02-09T04:33:59.736Z,7.71
2019-02-09T04:34:59.700Z,7.66
2019-02-09T04:35:59.700Z,7.77
2019-02-09T04:36:59.684Z,7.74
2019-02-09T04:37:59.692Z,7.71
2019-02-09T04:38:59.657Z,7.76
2019-02-09T04:39:59.646Z,7.71
2019-02-09T04:40:59.635Z,7.69
2019-02-09T04:41:59.623Z,7.74
2019-02-09T04:42:59.637Z,7.73
2019-02-09T04:43:59.604Z,7.78
2019-02-09T04:44:59.591Z,7.81
2019-02-09T04:45:59.583Z,7.83
2019-02-09T04:46:59.570Z,7.81
2019-02-09T04:47:59.595Z,7.83
2019-02-09T04:48:59.551Z,7.86
2019-02-09T04:49:59.545Z,7.86
2019-02-09T04:50:59.533Z,7.80
2019-02-09T04:51:59.514Z,7.81
2019-02-09T04:52:59.509Z,7.80
2019-02-09T04:53:59.545Z,7.77
2019-02-09T04:54:59.490Z,7.92
2019-02-09T04:55:59.471Z,7.81
2019-02-09T04:56:59.459Z,7.92
2019-02-09T04:57:59.479Z,7.94
2019-02-09T04:58:59.437Z,7.96
2019-02-09T04:59:59.426Z,7.96
2019-02-09T05:00:59.417Z,7.98
2019-02-09T05:01:59.410Z,7.98
2019-02-09T05:02:59.460Z,8.01
2019-02-09T05:03:59.391Z,8.06
2019-02-09T05:04:59.373Z,7.99
2019-02-09T05:05:59.357Z,8.01
2019-02-09T05:06:59.350Z,8.01
2019-02-09T05:07:59.343Z,8.02
2019-02-09T05:08:59.359Z,8.01
2019-02-09T05:09:59.318Z,8.10
2019-02-09T05:10:59.302Z,8.02
2019-02-09T05:11:59.303Z,8.05
2019-02-09T05:12:59.292Z,8.04
2019-02-09T05:13:59.295Z,8.14
2019-02-09T05:14:59.261Z,8.16
2019-02-09T05:15:59.250Z,8.13
2019-02-09T05:16:59.235Z,8.05
2019-02-09T05:17:59.253Z,8.09
2019-02-09T05:18:59.351Z,8.10
2019-02-09T05:19:59.203Z,8.06
2019-02-09T05:20:59.193Z,8.14
2019-02-09T05:21:59.181Z,8.14
2019-02-09T05:22:59.171Z,8.09
2019-02-09T05:23:59.159Z,8.14
2019-02-09T05:24:59.186Z,8.09
2019-02-09T05:25:59.143Z,8.09
2019-02-09T05:26:59.126Z,8.17
2019-02-09T05:27:59.119Z,8.16
2019-02-09T05:28:59.130Z,8.26
2019-02-09T05:29:59.117Z,8.20
2019-02-09T05:30:59.081Z,8.14
2019-02-09T05:31:59.070Z,8.16
2019-02-09T05:33:00.701Z,8.16
2019-02-09T05:33:59.060Z,8.14
2019-02-09T05:34:59.062Z,8.12
2019-02-09T05:35:59.027Z,8.13
2019-02-09T05:36:59.020Z,8.14
2019-02-09T05:37:59.009Z,8.12
2019-02-09T05:38:58.999Z,8.13
2019-02-09T05:39:59.010Z,8.04
2019-02-09T05:40:58.979Z,8.01
2019-02-09T05:41:58.964Z,8.05
2019-02-09T05:42:58.953Z,8.06
2019-02-09T05:43:58.941Z,8.04
2019-02-09T05:44:58.957Z,8.04
2019-02-09T05:45:58.948Z,8.05
2019-02-09T05:46:58.918Z,8.06
2019-02-09T05:47:58.906Z,8.05
2019-02-09T05:48:58.891Z,7.96
2019-02-09T05:49:58.880Z,8.02
2019-02-09T05:50:58.886Z,7.96
2019-02-09T05:51:58.859Z,8.05
2019-02-09T05:52:58.839Z,7.92
2019-02-09T05:53:58.828Z,7.94
2019-02-09T05:54:58.821Z,7.94
2019-02-09T05:55:58.833Z,7.87
2019-02-09T05:56:58.795Z,7.98
2019-02-09T05:57:58.800Z,7.96
2019-02-09T05:58:58.779Z,7.95
2019-02-09T05:59:58.772Z,7.94
2019-02-09T06:00:58.773Z,7.91
2019-02-09T06:01:58.750Z,8.01
2019-02-09T06:02:58.755Z,7.99
2019-02-09T06:03:58.718Z,8.04
2019-02-09T06:04:58.709Z,7.98
2019-02-09T06:05:58.721Z,8.05
2019-02-09T06:06:58.686Z,8.05
2019-02-09T06:07:58.683Z,8.04
2019-02-09T06:08:58.673Z,8.06
2019-02-09T06:09:58.676Z,8.12
2019-02-09T06:10:58.671Z,8.02
2019-02-09T06:11:58.628Z,8.02
2019-02-09T06:12:58.622Z,7.99
2019-02-09T06:13:58.614Z,8.12
2019-02-09T06:14:58.608Z,8.02
2019-02-09T06:15:58.622Z,8.20
2019-02-09T06:16:58.574Z,8.12
2019-02-09T06:17:58.564Z,8.04
2019-02-09T06:18:58.564Z,8.09
2019-02-09T06:19:58.543Z,8.14
2019-02-09T06:20:58.576Z,8.19
2019-02-09T06:21:58.554Z,8.20
2019-02-09T06:22:58.516Z,8.20
2019-02-09T06:23:58.498Z,8.28
2019-02-09T06:24:58.485Z,8.23
2019-02-09T06:25:58.486Z,8.14
2019-02-09T06:26:58.497Z,8.19
2019-02-09T06:27:58.453Z,8.19
2019-02-09T06:28:58.442Z,8.17
2019-02-09T06:29:58.431Z,8.19
2019-02-09T06:30:58.421Z,8.19
2019-02-09T06:31:58.433Z,8.14
2019-02-09T06:32:58.409Z,8.19
2019-02-09T06:33:58.386Z,8.19
2019-02-09T06:34:58.375Z,8.19
2019-02-09T06:35:58.371Z,8.16
2019-02-09T06:36:58.383Z,8.19
2019-02-09T06:37:58.345Z,8.19
2019-02-09T06:38:58.333Z,8.20
2019-02-09T06:39:58.321Z,8.21
2019-02-09T06:40:58.311Z,8.19
2019-02-09T06:41:58.298Z,8.23
2019-02-09T06:42:58.317Z,8.17
2019-02-09T06:43:58.283Z,8.17
2019-02-09T06:44:58.285Z,8.19
2019-02-09T06:45:58.255Z,8.14
2019-02-09T06:46:58.271Z,8.16
2019-02-09T06:47:58.231Z,8.29
2019-02-09T06:48:58.221Z,8.17
2019-02-09T06:49:58.211Z,8.24
2019-02-09T06:50:58.199Z,8.21
2019-02-09T06:51:58.222Z,8.21
2019-02-09T06:52:58.185Z,8.14
2019-02-09T06:53:58.166Z,8.19
2019-02-09T06:54:58.162Z,8.21
2019-02-09T06:55:58.152Z,8.28
2019-02-09T06:56:58.162Z,8.21
2019-02-09T06:57:58.125Z,8.34
2019-02-09T06:58:58.114Z,8.32
2019-02-09T06:59:58.105Z,8.24
2019-02-09T07:00:58.092Z,8.32
2019-02-09T07:01:58.109Z,8.20
2019-02-09T07:02:58.074Z,8.20
2019-02-09T07:03:58.057Z,8.13
2019-02-09T07:04:58.049Z,8.29
2019-02-09T07:05:58.034Z,8.20
2019-02-09T07:06:58.026Z,8.26
2019-02-09T07:07:58.048Z,8.23
2019-02-09T07:08:58.003Z,8.26
2019-02-09T07:09:57.992Z,8.29
2019-02-09T07:10:57.984Z,8.31
2019-02-09T07:11:57.968Z,8.35
2019-02-09T07:12:57.999Z,8.34
2019-02-09T07:13:57.958Z,8.34
2019-02-09T07:14:57.958Z,8.28
2019-02-09T07:15:57.931Z,8.29
2019-02-09T07:16:57.916Z,8.17
2019-02-09T07:17:57.936Z,8.20
2019-02-09T07:18:57.942Z,8.17
2019-02-09T07:19:57.879Z,8.16
2019-02-09T07:20:57.868Z,8.19
2019-02-09T07:21:57.862Z,8.20
2019-02-09T07:22:57.890Z,8.24
2019-02-09T07:23:57.860Z,8.21
2019-02-09T07:24:57.823Z,8.20
2019-02-09T07:25:57.819Z,8.21
2019-02-09T07:26:57.807Z,8.23
2019-02-09T07:27:57.823Z,8.17
2019-02-09T07:28:57.782Z,8.26
2019-02-09T07:29:57.774Z,8.16
2019-02-09T07:30:57.768Z,8.19
2019-02-09T07:31:57.753Z,8.20
2019-02-09T07:32:57.750Z,8.20
2019-02-09T07:33:57.749Z,8.19
2019-02-09T07:34:57.718Z,8.21
2019-02-09T07:35:57.708Z,8.17
2019-02-09T07:36:57.693Z,8.23
2019-02-09T07:37:57.681Z,8.29
2019-02-09T07:38:57.697Z,8.29
2019-02-09T07:39:57.689Z,8.34
2019-02-09T07:40:57.654Z,8.23
2019-02-09T07:41:57.643Z,8.24
2019-02-09T07:42:57.631Z,8.29
2019-02-09T07:43:57.663Z,8.32
2019-02-09T07:44:57.612Z,8.31
2019-02-09T07:45:57.603Z,8.37
2019-02-09T07:46:57.587Z,8.35
2019-02-09T07:47:57.569Z,8.47
2019-02-09T07:48:57.568Z,8.35
2019-02-09T07:49:57.585Z,8.35
2019-02-09T07:50:57.539Z,8.34
2019-02-09T07:51:57.533Z,8.29
2019-02-09T07:52:57.534Z,8.39
2019-02-09T07:53:57.509Z,8.28
2019-02-09T07:54:57.528Z,8.42
2019-02-09T07:55:57.486Z,8.38
2019-02-09T07:56:57.471Z,8.44
2019-02-09T07:57:57.462Z,8.44
2019-02-09T07:58:57.453Z,8.41
2019-02-09T07:59:57.471Z,8.39
2019-02-09T08:00:57.441Z,8.38
2019-02-09T08:02:04.436Z,8.38
2019-02-09T08:02:58.411Z,8.39
2019-02-09T08:03:57.407Z,8.24
2019-02-09T08:04:57.419Z,8.38
2019-02-09T08:05:57.405Z,8.44
2019-02-09T08:06:57.366Z,8.38
2019-02-09T08:07:57.360Z,8.44
2019-02-09T08:08:57.338Z,8.47
2019-02-09T08:09:57.360Z,8.50
2019-02-09T08:10:57.339Z,8.44
2019-02-09T08:11:57.318Z,8.46
2019-02-09T08:12:57.294Z,8.52
2019-02-09T08:13:57.292Z,8.52
2019-02-09T08:14:57.306Z,8.39
2019-02-09T08:15:57.287Z,8.49
2019-02-09T08:16:57.258Z,8.44
2019-02-09T08:17:57.246Z,8.44
2019-02-09T08:18:57.237Z,8.49
2019-02-09T08:19:57.223Z,8.42
2019-02-09T08:20:57.245Z,8.46
2019-02-09T08:21:57.238Z,8.42
2019-02-09T08:22:57.196Z,8.49
2019-02-09T08:23:57.175Z,8.47
2019-02-09T08:24:57.171Z,8.46
2019-02-09T08:25:57.208Z,8.49
2019-02-09T08:26:57.157Z,8.49
2019-02-09T08:27:57.145Z,8.44
2019-02-09T08:28:57.124Z,8.42
2019-02-09T08:29:57.112Z,8.46
2019-02-09T08:30:57.124Z,8.49
2019-02-09T08:31:57.126Z,8.47
2019-02-09T08:32:57.080Z,8.47
2019-02-09T08:33:57.069Z,8.52
2019-02-09T08:34:57.071Z,8.52
2019-02-09T08:35:57.069Z,8.55
2019-02-09T08:36:57.030Z,8.50
2019-02-09T08:37:57.018Z,8.46
2019-02-09T08:38:57.014Z,8.44
2019-02-09T08:39:57.008Z,8.42
2019-02-09T08:40:57.013Z,8.46
2019-02-09T08:41:56.978Z,8.47
2019-02-09T08:42:56.975Z,8.39
2019-02-09T08:43:56.957Z,8.47
2019-02-09T08:44:56.946Z,8.50
2019-02-09T08:45:56.936Z,8.56
2019-02-09T08:46:56.949Z,8.55
2019-02-09T08:47:56.909Z,8.52
2019-02-09T08:48:56.905Z,8.63
2019-02-09T08:49:56.894Z,8.60
2019-02-09T08:50:56.878Z,8.62
2019-02-09T08:51:56.895Z,8.65
2019-02-09T08:52:56.872Z,8.60
2019-02-09T08:53:56.846Z,8.60
2019-02-09T08:54:56.831Z,8.60
2019-02-09T08:55:56.824Z,8.63
2019-02-09T08:56:56.841Z,8.68
2019-02-09T08:57:56.810Z,8.71
2019-02-09T08:58:56.790Z,8.68
2019-02-09T08:59:56.785Z,8.65
2019-02-09T09:00:56.765Z,8.71
2019-02-09T09:01:56.789Z,8.65
2019-02-09T09:02:56.743Z,8.57
2019-02-09T09:03:56.733Z,8.62
2019-02-09T09:04:56.733Z,8.67
2019-02-09T09:05:56.721Z,8.59
2019-02-09T09:06:56.721Z,8.56
2019-02-09T09:07:56.711Z,8.60
2019-02-09T09:08:56.674Z,8.55
2019-02-09T09:09:56.669Z,8.72
2019-02-09T09:10:56.702Z,8.74
2019-02-09T09:11:56.668Z,8.71
2019-02-09T09:12:56.743Z,8.75
2019-02-09T09:13:56.629Z,8.67
2019-02-09T09:14:56.610Z,8.78
2019-02-09T09:15:56.601Z,8.75
2019-02-09T09:16:56.593Z,8.77
2019-02-09T09:17:56.611Z,8.74
2019-02-09T09:18:56.566Z,8.77
2019-02-09T09:19:56.554Z,8.75
2019-02-09T09:20:56.555Z,8.86
2019-02-09T09:21:56.541Z,8.81
2019-02-09T09:22:56.590Z,8.89
2019-02-09T09:23:56.511Z,8.90
2019-02-09T09:24:56.502Z,8.93
2019-02-09T09:25:56.487Z,8.90
2019-02-09T09:26:56.486Z,8.93
2019-02-09T09:27:56.474Z,8.93
2019-02-09T09:28:56.500Z,8.88
2019-02-09T09:29:56.449Z,8.90
2019-02-09T09:30:56.433Z,8.98
2019-02-09T09:31:56.425Z,8.95
2019-02-09T09:32:56.413Z,8.93
2019-02-09T09:33:56.432Z,9.11
2019-02-09T09:34:56.398Z,8.89
2019-02-09T09:35:56.376Z,9.06
2019-02-09T09:36:56.376Z,8.99
2019-02-09T09:37:56.363Z,9.11
2019-02-09T09:38:56.371Z,9.15
2019-02-09T09:39:56.332Z,9.12
2019-02-09T09:40:56.332Z,9.06
2019-02-09T09:41:56.313Z,9.16
2019-02-09T09:42:56.302Z,9.12
2019-02-09T09:43:56.331Z,9.14
2019-02-09T09:44:56.283Z,9.23
2019-02-09T09:45:56.271Z,9.23
2019-02-09T09:46:56.275Z,9.15
2019-02-09T09:47:56.250Z,9.16
2019-02-09T09:48:56.262Z,9.16
2019-02-09T09:49:56.234Z,9.16
2019-02-09T09:50:56.212Z,9.11
2019-02-09T09:51:56.203Z,9.11
2019-02-09T09:52:56.233Z,9.09
2019-02-09T09:53:56.202Z,8.96
2019-02-09T09:54:56.166Z,9.03
2019-02-09T09:55:56.163Z,9.08
2019-02-09T09:56:56.148Z,9.09
2019-02-09T09:57:56.145Z,8.96
2019-02-09T09:58:56.149Z,8.93
2019-02-09T09:59:56.145Z,8.93
2019-02-09T10:00:56.104Z,8.95
2019-02-09T10:01:56.095Z,8.89
2019-02-09T10:02:56.089Z,8.95
2019-02-09T10:03:56.075Z,8.90
2019-02-09T10:04:56.108Z,8.90
2019-02-09T10:05:56.051Z,8.90
2019-02-09T10:06:56.035Z,8.98
2019-02-09T10:07:56.032Z,8.93
2019-02-09T10:08:56.014Z,9.08
2019-02-09T10:09:56.039Z,9.11
2019-02-09T10:10:55.993Z,9.12
2019-02-09T10:11:55.981Z,9.19
2019-02-09T10:12:55.971Z,9.14
2019-02-09T10:13:55.957Z,9.26
2019-02-09T10:14:55.974Z,9.23
2019-02-09T10:15:55.980Z,9.27
2019-02-09T10:16:55.936Z,9.27
2019-02-09T10:17:55.914Z,9.32
2019-02-09T10:18:55.896Z,9.34
2019-02-09T10:19:55.931Z,9.37
2019-02-09T10:20:55.892Z,9.52
2019-02-09T10:21:55.869Z,9.50
2019-02-09T10:22:55.855Z,9.60
2019-02-09T10:23:55.852Z,9.60
2019-02-09T10:24:55.878Z,9.66
2019-02-09T10:25:55.855Z,9.77
2019-02-09T10:26:55.810Z,9.84
2019-02-09T10:27:55.804Z,9.87
2019-02-09T10:28:55.804Z,9.90
2019-02-09T10:29:55.834Z,9.94
2019-02-09T10:30:55.771Z,9.87
2019-02-09T10:31:55.754Z,9.88
2019-02-09T10:32:55.758Z,9.99
2019-02-09T10:33:55.734Z,10.02
2019-02-09T10:34:55.724Z,9.99
2019-02-09T10:35:55.813Z,10.05
2019-02-09T10:36:55.705Z,9.99
2019-02-09T10:37:55.689Z,9.88
2019-02-09T10:38:55.676Z,9.88
2019-02-09T10:39:55.676Z,9.90
2019-02-09T10:40:55.703Z,9.91
2019-02-09T10:41:55.659Z,9.85
2019-02-09T10:42:55.649Z,9.84
2019-02-09T10:43:55.624Z,9.93
2019-02-09T10:44:55.643Z,9.83
2019-02-09T10:45:55.625Z,9.77
2019-02-09T10:46:55.606Z,9.83
2019-02-09T10:47:55.579Z,9.77
2019-02-09T10:48:55.568Z,9.91
2019-02-09T10:49:55.552Z,9.81
2019-02-09T10:50:55.571Z,9.85
2019-02-09T10:51:55.532Z,9.85
2019-02-09T10:52:55.526Z,9.75
2019-02-09T10:53:55.515Z,9.73
2019-02-09T10:54:55.504Z,9.70
2019-02-09T10:55:55.520Z,9.77
2019-02-09T10:56:55.475Z,9.83
2019-02-09T10:57:55.471Z,9.77
2019-02-09T10:58:55.454Z,9.77
2019-02-09T10:59:55.444Z,9.80
2019-02-09T11:00:55.459Z,9.77
2019-02-09T11:01:55.420Z,9.77
2019-02-09T11:02:55.910Z,9.87
2019-02-09T11:03:55.413Z,9.87
2019-02-09T11:04:55.389Z,9.88
2019-02-09T11:05:55.428Z,10.02
2019-02-09T11:06:55.367Z,10.09
2019-02-09T11:07:55.357Z,10.03
2019-02-09T11:08:55.361Z,10.08
2019-02-09T11:09:55.356Z,10.12
2019-02-09T11:10:55.337Z,10.06
2019-02-09T11:11:55.335Z,10.08
2019-02-09T11:12:55.299Z,10.02
2019-02-09T11:13:55.290Z,9.93
2019-02-09T11:14:55.276Z,9.91
2019-02-09T11:15:55.274Z,10.01
2019-02-09T11:16:55.279Z,9.94
2019-02-09T11:17:55.243Z,9.83
2019-02-09T11:18:55.241Z,9.90
2019-02-09T11:19:55.219Z,9.99
2019-02-09T11:20:55.211Z,9.91
2019-02-09T11:21:55.223Z,9.87
2019-02-09T11:22:55.191Z,9.90
2019-02-09T11:23:55.172Z,9.90
2019-02-09T11:24:55.165Z,9.88
2019-02-09T11:25:55.159Z,9.90
2019-02-09T11:26:55.144Z,9.94
2019-02-09T11:27:55.156Z,9.93
2019-02-09T11:28:55.117Z,9.91
2019-02-09T11:29:55.117Z,9.98
2019-02-09T11:30:55.735Z,9.98
2019-02-09T11:31:55.561Z,9.96
2019-02-09T11:33:00.732Z,9.90
2019-02-09T11:33:56.064Z,9.88
2019-02-09T11:34:55.052Z,10.01
2019-02-09T11:35:55.045Z,9.90
2019-02-09T11:36:55.041Z,9.91
2019-02-09T11:37:55.051Z,9.93
2019-02-09T11:38:55.036Z,10.01
2019-02-09T11:39:55.012Z,10.05
2019-02-09T11:40:55.015Z,10.09
2019-02-09T11:41:54.994Z,10.17
2019-02-09T11:42:55.038Z,10.08
2019-02-09T11:43:54.963Z,10.05
2019-02-09T11:44:56.250Z,9.98
2019-02-09T11:45:54.930Z,9.96
2019-02-09T11:46:54.921Z,9.94
2019-02-09T11:47:54.952Z,10.01
2019-02-09T11:48:54.899Z,9.94
2019-02-09T11:49:54.888Z,9.99
2019-02-09T11:56:22.944Z,9.90
2019-02-09T11:57:22.834Z,10.01
2019-02-09T11:58:22.864Z,10.05
2019-02-09T11:59:22.823Z,9.90
2019-02-09T12:00:22.807Z,9.99
2019-02-09T12:01:22.795Z,9.83
2019-02-09T12:02:22.800Z,9.90
2019-02-09T12:03:22.810Z,9.93
2019-02-09T12:04:22.760Z,9.87
2019-02-09T12:05:22.751Z,9.88
2019-02-09T12:06:22.741Z,9.87
2019-02-09T12:07:23.883Z,9.90
2019-02-09T12:08:22.725Z,9.90
2019-02-09T12:09:22.734Z,9.90
2019-02-09T12:10:22.703Z,9.96
2019-02-09T12:11:22.679Z,9.98
2019-02-09T12:12:22.681Z,10.08
2019-02-09T12:13:22.668Z,10.02
2019-02-09T12:14:22.687Z,10.14
2019-02-09T12:15:22.635Z,10.20
2019-02-09T12:16:22.627Z,10.17
2019-02-09T12:17:22.612Z,10.09
2019-02-09T12:18:22.607Z,10.03
2019-02-09T12:19:22.634Z,10.03
2019-02-09T12:20:22.586Z,10.08
2019-02-09T12:21:22.571Z,10.05
2019-02-09T12:22:22.557Z,10.06
2019-02-09T12:23:22.546Z,10.02
2019-02-09T12:24:22.562Z,10.03
2019-02-09T12:25:22.527Z,10.05
2019-02-09T12:26:22.517Z,10.05
2019-02-09T12:27:22.506Z,9.96
2019-02-09T12:28:22.495Z,10.21
2019-02-09T12:29:22.506Z,10.34
2019-02-09T12:30:22.496Z,10.43
2019-02-09T12:31:22.465Z,10.26
2019-02-09T12:32:22.453Z,10.27
2019-02-09T12:33:23.438Z,10.30
2019-02-09T12:34:22.425Z,10.38
2019-02-09T12:35:22.453Z,10.24
2019-02-09T12:36:22.403Z,10.28
2019-02-09T12:37:22.396Z,10.35
2019-02-09T12:38:22.382Z,10.34
2019-02-09T12:39:22.380Z,10.30
2019-02-09T12:40:22.360Z,10.24
2019-02-09T12:41:22.370Z,10.24
2019-02-09T12:42:22.342Z,10.23
2019-02-09T12:43:22.336Z,10.21
2019-02-09T12:44:22.313Z,10.21
2019-02-09T12:45:22.312Z,10.30
2019-02-09T12:46:22.329Z,10.43
2019-02-09T12:47:22.292Z,10.38
2019-02-09T12:48:22.271Z,10.35
2019-02-09T12:49:22.270Z,10.38
2019-02-09T12:50:22.276Z,10.38
2019-02-09T12:51:22.268Z,10.27
2019-02-09T12:52:22.233Z,10.31
2019-02-09T12:53:22.212Z,10.21
2019-02-09T12:54:22.220Z,10.18
2019-02-09T12:55:22.242Z,10.16
2019-02-09T12:56:22.179Z,10.27
2019-02-09T12:57:22.167Z,10.23
2019-02-09T12:58:22.155Z,10.26
2019-02-09T12:59:22.169Z,10.24
2019-02-09T13:00:22.135Z,10.27
2019-02-09T13:01:22.998Z,10.34
2019-02-09T13:02:22.121Z,10.26
2019-02-09T13:03:22.117Z,10.23
2019-02-09T13:04:22.100Z,10.24
2019-02-09T13:05:22.080Z,10.26
2019-02-09T13:06:22.113Z,10.48
2019-02-09T13:07:22.076Z,10.91
2019-02-09T13:08:22.051Z,10.82
2019-02-09T13:09:22.043Z,10.85
2019-02-09T13:10:22.033Z,10.85
2019-02-09T13:11:22.056Z,10.75
2019-02-09T13:12:22.003Z,10.60
2019-02-09T13:13:21.993Z,10.49
2019-02-09T13:14:23.728Z,10.36
2019-02-09T13:15:21.970Z,10.30
2019-02-09T13:16:21.999Z,10.36
2019-02-09T13:17:21.958Z,10.23
2019-02-09T13:18:21.950Z,10.26
2019-02-09T13:19:21.935Z,10.20
2019-02-09T13:20:21.928Z,9.93